Time,TemperatureF,DewpointF,PressureIn,WindDirection,WindDirectionDegrees,WindSpeedMPH,WindSpeedGustMPH,Humidity,HourlyPrecipIn,Conditions,Clouds,dailyrainin,SolarRadiationWatts/m^2,SoftwareType,DateUTC
2013-08-21 00:02:00,71.0,34.0,-100.00,SE,126,4.0,20.0,26,0.00,,,0.00,0.000000,,2013-08-21 06:02:00,
2013-08-21 00:42:00,68.0,35.0,-100.00,West,262,3.0,9.0,29,0.00,,,0.00,0.000000,,2013-08-21 06:42:00,
2013-08-21 00:52:00,68.0,35.0,-100.00,West,262,3.0,9.0,29,0.00,,,0.00,0.000000,,2013-08-21 06:52:00,
2013-08-21 01:01:00,68.0,35.0,-100.00,West,262,3.0,9.0,29,0.00,,,0.00,0.000000,,2013-08-21 07:01:00,
2013-08-21 01:03:00,64.0,34.0,-100.00,WSW,238,5.0,9.0,33,0.00,,,0.00,0.000000,,2013-08-21 07:03:00,
2013-08-21 01:42:00,64.0,34.0,-100.00,WSW,238,5.0,9.0,33,0.00,,,0.00,0.000000,,2013-08-21 07:42:00,
2013-08-21 01:53:00,64.0,34.0,-100.00,WSW,238,5.0,9.0,33,0.00,,,0.00,0.000000,,2013-08-21 07:53:00,
2013-08-21 02:22:00,67.0,33.0,-100.00,WSW,253,3.0,10.0,28,0.00,,,0.00,0.000000,,2013-08-21 08:22:00,
2013-08-21 02:32:00,67.0,33.0,-100.00,WSW,253,3.0,10.0,28,0.00,,,0.00,0.000000,,2013-08-21 08:32:00,
2013-08-21 05:42:00,57.0,34.0,-100.00,SW,235,4.0,10.0,41,-99.99,,,-99.99,0.000000,,2013-08-21 11:42:00,
2013-08-21 05:52:00,57.0,34.0,-100.00,SW,235,4.0,10.0,41,-99.99,,,-99.99,0.000000,,2013-08-21 11:52:00,
2013-08-21 06:01:00,57.0,34.0,-100.00,SW,235,4.0,10.0,41,-99.99,,,-99.99,0.000000,,2013-08-21 12:01:00,
2013-08-21 06:52:00,57.0,34.0,-100.00,SSW,209,2.0,9.0,41,0.00,,,0.00,0.000000,,2013-08-21 12:52:00,
2013-08-21 07:02:00,57.0,34.0,-100.00,SSW,209,2.0,9.0,41,0.00,,,0.00,0.000000,,2013-08-21 13:02:00,
2013-08-21 07:52:00,57.0,35.0,-100.00,WSW,241,4.0,8.0,44,-99.99,,,0.00,5.000000,,2013-08-21 13:52:00,
2013-08-21 08:02:00,57.0,35.0,-100.00,WSW,241,4.0,8.0,44,-99.99,,,0.00,5.000000,,2013-08-21 14:02:00,
2013-08-21 10:03:00,74.0,40.0,-100.00,ENE,70,3.0,8.0,29,-99.99,,,0.00,465.000000,,2013-08-21 16:03:00,
2013-08-21 10:53:00,74.0,40.0,-100.00,ENE,70,3.0,8.0,29,-99.99,,,0.00,465.000000,,2013-08-21 16:53:00,
2013-08-21 11:53:00,78.0,39.0,-100.00,NNE,25,5.0,10.0,25,0.00,,,0.00,248.000000,,2013-08-21 17:53:00,
2013-08-21 12:02:00,78.0,39.0,-100.00,NNE,25,5.0,10.0,25,0.00,,,0.00,248.000000,,2013-08-21 18:02:00,
2013-08-21 12:42:00,80.0,37.0,-100.00,NNE,26,7.0,13.0,21,0.00,,,0.00,819.000000,,2013-08-21 18:42:00,
2013-08-21 12:52:00,80.0,37.0,-100.00,NNE,26,7.0,13.0,21,0.00,,,0.00,819.000000,,2013-08-21 18:52:00,
2013-08-21 13:01:00,80.0,37.0,-100.00,NNE,26,7.0,13.0,21,0.00,,,0.00,819.000000,,2013-08-21 19:01:00,
2013-08-21 13:42:00,83.0,36.0,-100.00,ENE,72,7.0,15.0,19,0.00,,,0.00,973.000000,,2013-08-21 19:42:00,
2013-08-21 13:52:00,83.0,36.0,-100.00,ENE,72,7.0,15.0,19,0.00,,,0.00,973.000000,,2013-08-21 19:52:00,
2013-08-21 14:02:00,83.0,36.0,-100.00,ENE,72,7.0,15.0,19,0.00,,,0.00,973.000000,,2013-08-21 20:02:00,
2013-08-21 14:22:00,84.0,34.0,-100.00,ENE,62,9.0,15.0,17,0.00,,,0.00,1011.000000,,2013-08-21 20:22:00,
2013-08-21 14:32:00,84.0,34.0,-100.00,ENE,62,9.0,15.0,17,0.00,,,0.00,1011.000000,,2013-08-21 20:32:00,
2013-08-21 14:42:00,84.0,34.0,-100.00,ENE,62,9.0,15.0,17,0.00,,,0.00,1011.000000,,2013-08-21 20:42:00,
2013-08-21 14:52:00,84.0,34.0,-100.00,ENE,62,9.0,15.0,17,0.00,,,0.00,1011.000000,,2013-08-21 20:52:00,
2013-08-21 15:02:00,84.0,34.0,-100.00,ENE,62,9.0,15.0,17,0.00,,,0.00,1011.000000,,2013-08-21 21:02:00,
2013-08-21 15:03:00,85.0,34.0,-100.00,NE,41,9.0,16.0,16,0.00,,,0.00,984.000000,,2013-08-21 21:03:00,
2013-08-21 15:44:00,85.0,34.0,-100.00,NE,41,9.0,16.0,16,0.00,,,0.00,984.000000,,2013-08-21 21:44:00,
2013-08-21 15:54:00,85.0,34.0,-100.00,NE,41,9.0,16.0,16,0.00,,,0.00,984.000000,,2013-08-21 21:54:00,
2013-08-21 16:03:00,87.0,35.0,-100.00,NE,47,6.0,15.0,16,0.00,,,-99.99,905.000000,,2013-08-21 22:03:00,
2013-08-21 16:24:00,87.0,35.0,-100.00,NE,47,6.0,15.0,16,0.00,,,-99.99,905.000000,,2013-08-21 22:24:00,
2013-08-21 16:34:00,87.0,35.0,-100.00,NE,47,6.0,15.0,16,0.00,,,-99.99,905.000000,,2013-08-21 22:34:00,
2013-08-21 16:44:00,87.0,35.0,-100.00,NE,47,6.0,15.0,16,0.00,,,-99.99,905.000000,,2013-08-21 22:44:00,
2013-08-21 16:53:00,87.0,35.0,-100.00,NE,47,6.0,15.0,16,0.00,,,-99.99,905.000000,,2013-08-21 22:53:00,
2013-08-21 17:43:00,86.0,35.0,-100.00,NNE,23,5.0,15.0,16,0.00,,,0.00,461.000000,,2013-08-21 23:43:00,
2013-08-21 17:53:00,86.0,35.0,-100.00,NNE,23,5.0,15.0,16,0.00,,,0.00,461.000000,,2013-08-21 23:53:00,
2013-08-21 18:02:00,86.0,35.0,-100.00,NNE,23,5.0,15.0,16,0.00,,,0.00,461.000000,,2013-08-22 00:02:00,
2013-08-21 18:22:00,86.0,35.0,-100.00,North,0,8.0,15.0,16,0.00,,,-99.99,451.000000,,2013-08-22 00:22:00,
2013-08-21 18:32:00,86.0,35.0,-100.00,North,0,8.0,15.0,16,0.00,,,-99.99,451.000000,,2013-08-22 00:32:00,
2013-08-21 18:42:00,86.0,35.0,-100.00,North,0,8.0,15.0,16,0.00,,,-99.99,451.000000,,2013-08-22 00:42:00,
2013-08-21 18:52:00,86.0,35.0,-100.00,North,0,8.0,15.0,16,0.00,,,-99.99,451.000000,,2013-08-22 00:52:00,
2013-08-21 19:02:00,86.0,35.0,-100.00,North,0,8.0,15.0,16,0.00,,,-99.99,451.000000,,2013-08-22 01:02:00,
2013-08-21 19:03:00,86.0,31.0,-100.00,NNW,342,8.0,14.0,14,0.00,,,0.00,97.000000,,2013-08-22 01:03:00,
2013-08-21 19:42:00,86.0,31.0,-100.00,NNW,342,8.0,14.0,14,0.00,,,0.00,97.000000,,2013-08-22 01:42:00,
2013-08-21 19:52:00,86.0,31.0,-100.00,NNW,342,8.0,14.0,14,0.00,,,0.00,97.000000,,2013-08-22 01:52:00,
2013-08-21 20:52:00,81.0,31.0,-100.00,NW,324,5.0,12.0,16,0.00,,,0.00,115.000000,,2013-08-22 02:52:00,
2013-08-21 21:02:00,81.0,31.0,-100.00,NW,324,5.0,12.0,16,0.00,,,0.00,115.000000,,2013-08-22 03:02:00,
2013-08-21 21:03:00,77.0,37.0,-100.00,NE,50,6.0,14.0,24,0.00,,,0.00,3.000000,,2013-08-22 03:03:00,
2013-08-21 21:22:00,77.0,37.0,-100.00,NE,50,6.0,14.0,24,0.00,,,0.00,3.000000,,2013-08-22 03:22:00,
2013-08-21 21:35:00,77.0,37.0,-100.00,NE,50,6.0,14.0,24,0.00,,,0.00,3.000000,,2013-08-22 03:35:00,
2013-08-21 21:45:00,77.0,37.0,-100.00,NE,50,6.0,14.0,24,0.00,,,0.00,3.000000,,2013-08-22 03:45:00,
2013-08-21 21:54:00,77.0,37.0,-100.00,NE,50,6.0,14.0,24,0.00,,,0.00,3.000000,,2013-08-22 03:54:00,
2013-08-21 22:03:00,73.0,37.0,-100.00,WNW,284,1.0,14.0,27,0.00,,,0.00,0.000000,,2013-08-22 04:03:00,
2013-08-21 22:24:00,73.0,37.0,-100.00,WNW,284,1.0,14.0,27,0.00,,,0.00,0.000000,,2013-08-22 04:24:00,
2013-08-21 22:34:00,73.0,37.0,-100.00,WNW,284,1.0,14.0,27,0.00,,,0.00,0.000000,,2013-08-22 04:34:00,
2013-08-21 22:44:00,73.0,37.0,-100.00,WNW,284,1.0,14.0,27,0.00,,,0.00,0.000000,,2013-08-22 04:44:00,
2013-08-21 22:54:00,73.0,37.0,-100.00,WNW,284,1.0,14.0,27,0.00,,,0.00,0.000000,,2013-08-22 04:54:00,
2013-08-21 23:23:00,68.0,36.0,-100.00,WSW,250,3.0,5.0,31,-99.99,,,0.00,0.000000,,2013-08-22 05:23:00,
2013-08-21 23:34:00,68.0,36.0,-100.00,WSW,250,3.0,5.0,31,-99.99,,,0.00,0.000000,,2013-08-22 05:34:00,
2013-08-21 23:43:00,68.0,36.0,-100.00,WSW,250,3.0,5.0,31,-99.99,,,0.00,0.000000,,2013-08-22 05:43:00,
2013-08-21 23:52:00,68.0,36.0,-100.00,WSW,250,3.0,5.0,31,-99.99,,,0.00,0.000000,,2013-08-22 05:52:00,